Portada
METAR-TAF:

METAR-TAF

Aeroports :

Port Saïd, Egipte

latitud: 31-16N, longitud: 032-18E, altitud: 6 m

Observació

L'informe es va fer fa 2 hores i 43 minuts, a les 08:00 UTC
Vent 5 kt del Nord
Temperatura 30°C
Humitat 75%
Pressió 1009 hPa
Visibilitat 10 km o més
Núvols disperses a una alçada de 2500 ft

METAR: HEPS 090800Z 01005KT 9999 SCT025 30/25 Q1009 NOSIG

Hora: 12:43 (10:43 UTC)

Pronòstic

L'informe es va fer fa 5 hores i 43 minuts, a les 05:00 UTC
Pronòstic vàlid del 09 a les 06 UTC al 10 a les 12 UTC
Vent 8 kt del Est/Nord-Est
Visibilitat 10 km o més
sense núvols per sota de 1500 mi sense presència de cumulonimbus.

TAF: HEPS 090500Z 0906/1012 07008KT CAVOK

Observacions i pronòstics meteorològics de més de 4000 aeroports (METAR i TAF).

Les estacions disponibles són els punts grocs i vermells al mapa.

Posi el ratolí al punt desitjat per veure el nom de l'estació.

Feu clic per veure les observacions i els pronòstics meteorològics.

Per canviar el mapa: feu clic els botons verds amb una creu de color negre per apropar; al botó verd amb un guió per allunyar la imatge; o en les fletxes verdes per a mapes adjacents.


METAR-TAF: